Hlavní strana
METAR-TAF:

METAR-TAF

Letiště :

Mariehamn, Finsko

zeměpisná šířka: 60-07N, zeměpisná délka: 019-54E, výška: 6 m

Aktuální stav počasí

Zpráva byla vytvořena před 11 minutami, v 16:20 UTC
Severozápadní vítr 6 kt, proměnlivý mezi západním a severoseverozápadním
Teplota 6°C
Vlhkost vzduchu 70%
Tlak 1026 hPa
Viditelnost 10 km a více
Žádná oblačnost pod 1500 m, nevyskytují se cumulonimby.

METAR: EFMA 281620Z AUTO 31006KT 270V340 CAVOK 06/01 Q1026

Čas: 18:31 (16:31 UTC)

Předpověď počasí

Zpráva byla vytvořena před 2 hodinami a 3 minutami, v 14:28 UTC
Předpověď platná od 28 v 15 UTC do 28 v 24 UTC
Severozápadní vítr 12 kt
Viditelnost 10 km a více
Žádná oblačnost pod 1500 m, nevyskytují se cumulonimby.

TAF: EFMA 281428Z 2815/2824 31012KT CAVOK

Stav a předpovědi počasí z více než 4 000 letišť (zprávy METAR a TAF).

Červené a žluté tečky na mapě představují dostupné meteorologické stanice.

Když kurzor umístíte na tečku, zobrazí se název stanice.

Pak kliknutím zobrazíte stav a předpověď počasí.

Chcete-li změnit mapu, kliknutím na zelené tlačítko se znaménkem +mapu přiblížíte, kliknutím na zelené tlačítko se znaménkem – mapu oddálíte a kliknutím na zelené šipky přejdete na sousední mapy.


METAR-TAF: